createdAt,value
2019-02-25T00:02:09.369Z,46.10
2019-02-25T00:04:41.347Z,46.20
2019-02-25T00:07:13.550Z,46.40
2019-02-25T00:09:45.430Z,46.40
2019-02-25T00:12:17.049Z,46.30
2019-02-25T00:14:48.857Z,46.10
2019-02-25T00:17:20.401Z,46.60
2019-02-25T00:19:52.306Z,46.50
2019-02-25T00:22:23.874Z,46.40
2019-02-25T00:24:55.649Z,46.20
2019-02-25T00:32:29.414Z,45.80
2019-02-25T00:35:01.078Z,46.30
2019-02-25T00:37:32.791Z,46.40
2019-02-25T00:40:04.386Z,46.40
2019-02-25T00:42:36.156Z,46.30
2019-02-25T00:45:08.525Z,46.50
2019-02-25T00:47:40.746Z,46.70
2019-02-25T00:50:13.460Z,46.40
2019-02-25T00:52:45.374Z,46.80
2019-02-25T00:55:17.110Z,46.70
2019-02-25T00:57:48.786Z,46.80
2019-02-25T01:00:19.935Z,46.60
2019-02-25T01:02:51.770Z,46.70
2019-02-25T01:05:22.468Z,46.70
2019-02-25T01:07:54.306Z,46.70
2019-02-25T01:10:26.061Z,46.70
2019-02-25T01:12:57.779Z,46.80
2019-02-25T01:15:29.719Z,46.60
2019-02-25T01:18:00.514Z,46.60
2019-02-25T01:20:32.307Z,46.60
2019-02-25T01:23:03.849Z,46.70
2019-02-25T01:25:35.763Z,46.70
2019-02-25T01:28:06.584Z,46.80
2019-02-25T01:35:39.899Z,45.80
2019-02-25T01:38:12.617Z,46.50
2019-02-25T01:40:44.352Z,46.60
2019-02-25T01:43:15.853Z,46.40
2019-02-25T01:45:47.898Z,46.80
2019-02-25T01:48:19.420Z,46.60
2019-02-25T01:50:51.071Z,46.30
2019-02-25T01:53:22.790Z,46.30
2019-02-25T01:55:53.490Z,46.30
2019-02-25T01:58:25.309Z,46.60
2019-02-25T02:00:56.853Z,46.50
2019-02-25T02:03:28.397Z,47.00
2019-02-25T02:06:00.078Z,47.10
2019-02-25T02:08:31.761Z,46.90
2019-02-25T02:11:02.493Z,47.20
2019-02-25T02:13:34.597Z,46.90
2019-02-25T02:16:06.322Z,47.00
2019-02-25T02:18:38.061Z,47.40
2019-02-25T02:21:09.806Z,47.00
2019-02-25T02:23:41.607Z,47.30
2019-02-25T02:26:13.793Z,47.00
2019-02-25T02:28:45.421Z,46.60
2019-02-25T02:31:17.084Z,46.80
2019-02-25T02:33:49.067Z,46.90
2019-02-25T02:36:20.855Z,46.90
2019-02-25T02:38:52.604Z,47.00
2019-02-25T02:41:24.357Z,46.60
2019-02-25T02:43:56.074Z,46.40
2019-02-25T02:47:31.352Z,46.70
2019-02-25T02:50:03.708Z,46.80
2019-02-25T02:52:35.810Z,46.60
2019-02-25T02:55:08.317Z,46.70
2019-02-25T02:57:39.865Z,46.70
2019-02-25T03:00:16.517Z,46.10
2019-02-25T03:02:48.312Z,46.20
2019-02-25T03:05:20.773Z,47.20
2019-02-25T03:07:51.480Z,47.00
2019-02-25T03:10:23.353Z,46.80
2019-02-25T03:12:55.374Z,47.10
2019-02-25T03:15:27.325Z,46.80
2019-02-25T03:17:59.538Z,47.00
2019-02-25T03:20:31.358Z,47.00
2019-02-25T03:23:03.076Z,46.60
2019-02-25T03:25:34.788Z,47.00
2019-02-25T03:28:05.885Z,47.20
2019-02-25T03:30:37.611Z,47.00
2019-02-25T03:38:12.799Z,46.10
2019-02-25T03:40:43.722Z,47.00
2019-02-25T03:43:14.500Z,47.00
2019-02-25T03:45:46.318Z,46.80
2019-02-25T03:48:17.874Z,47.00
2019-02-25T03:50:49.786Z,47.10
2019-02-25T03:53:20.477Z,47.00
2019-02-25T03:55:52.313Z,47.10
2019-02-25T03:58:23.890Z,47.00
2019-02-25T04:00:55.369Z,46.90
2019-02-25T04:03:27.078Z,47.00
2019-02-25T04:05:58.761Z,46.60
2019-02-25T04:08:29.671Z,46.80
2019-02-25T04:12:42.376Z,47.00
2019-02-25T04:15:18.761Z,46.60
2019-02-25T04:17:49.453Z,46.80
2019-02-25T04:20:22.402Z,46.90
2019-02-25T04:22:54.322Z,46.80
2019-02-25T04:25:25.874Z,46.90
2019-02-25T04:27:57.382Z,47.30
2019-02-25T04:30:31.026Z,47.10
2019-02-25T04:33:03.318Z,47.00
2019-02-25T04:35:35.345Z,46.90
2019-02-25T04:38:07.312Z,46.90
2019-02-25T04:40:38.954Z,47.30
2019-02-25T04:43:11.301Z,47.10
2019-02-25T04:45:42.993Z,47.10
2019-02-25T04:48:14.736Z,47.10
2019-02-25T04:50:45.733Z,47.20
2019-02-25T04:53:17.102Z,47.20
2019-02-25T04:55:48.758Z,47.00
2019-02-25T04:58:19.498Z,47.00
2019-02-25T05:00:51.308Z,47.30
2019-02-25T05:03:23.513Z,47.00
2019-02-25T05:05:55.320Z,47.20
2019-02-25T05:08:27.379Z,47.20
2019-02-25T05:10:59.066Z,47.50
2019-02-25T05:13:30.704Z,47.50
2019-02-25T05:16:01.509Z,47.50
2019-02-25T05:18:33.442Z,48.00
2019-02-25T05:21:05.518Z,47.50
2019-02-25T05:23:37.352Z,47.30
2019-02-25T05:26:09.601Z,47.20
2019-02-25T05:28:41.801Z,47.10
2019-02-25T05:31:13.781Z,46.70
2019-02-25T05:33:45.454Z,47.30
2019-02-25T05:36:17.313Z,47.00
2019-02-25T05:38:48.870Z,47.30
2019-02-25T05:41:20.898Z,47.40
2019-02-25T05:43:52.404Z,47.30
2019-02-25T05:46:24.069Z,47.20
2019-02-25T05:48:56.305Z,47.20
2019-02-25T05:51:27.870Z,47.00
2019-02-25T05:53:59.860Z,47.30
2019-02-25T05:56:31.748Z,47.20
2019-02-25T05:59:02.594Z,47.30
2019-02-25T06:01:34.386Z,47.10
2019-02-25T06:04:06.311Z,45.50
2019-02-25T06:06:37.852Z,46.50
2019-02-25T06:09:10.306Z,46.60
2019-02-25T06:11:41.886Z,47.70
2019-02-25T06:14:13.685Z,47.60
2019-02-25T06:16:44.493Z,47.70
2019-02-25T06:19:16.494Z,47.40
2019-02-25T06:21:48.301Z,47.30
2019-02-25T06:24:19.826Z,47.70
2019-02-25T06:26:51.415Z,47.70
2019-02-25T06:29:23.367Z,47.60
2019-02-25T06:31:55.300Z,47.50
2019-02-25T06:34:26.859Z,47.70
2019-02-25T06:36:58.765Z,47.60
2019-02-25T06:39:30.407Z,47.50
2019-02-25T06:42:02.306Z,47.90
2019-02-25T06:44:33.838Z,47.40
2019-02-25T06:47:05.827Z,47.50
2019-02-25T06:49:37.589Z,47.20
2019-02-25T06:52:09.296Z,47.20
2019-02-25T06:54:40.878Z,47.90
2019-02-25T06:57:13.296Z,47.30
2019-02-25T06:59:44.850Z,47.50
2019-02-25T07:02:16.627Z,47.60
2019-02-25T07:05:02.647Z,47.40
2019-02-25T07:10:54.485Z,47.50
2019-02-25T07:13:44.062Z,47.50
2019-02-25T07:16:27.903Z,47.50
2019-02-25T07:19:05.806Z,47.50
2019-02-25T07:21:56.371Z,47.50
2019-02-25T07:24:54.310Z,47.70
2019-02-25T07:27:49.798Z,47.70
2019-02-25T07:30:28.721Z,47.70
2019-02-25T07:33:17.636Z,47.50
2019-02-25T07:35:59.150Z,47.50
2019-02-25T07:38:55.513Z,47.10
2019-02-25T07:41:34.427Z,48.00
2019-02-25T07:44:12.802Z,47.30
2019-02-25T07:46:54.305Z,47.30
2019-02-25T07:49:44.305Z,47.10
2019-02-25T07:52:28.782Z,47.00
2019-02-25T07:55:21.548Z,47.00
2019-02-25T07:58:15.061Z,47.00
2019-02-25T08:00:53.785Z,46.80
2019-02-25T08:03:33.497Z,47.90
2019-02-25T08:06:23.385Z,47.00
2019-02-25T08:09:16.524Z,47.20
2019-02-25T08:12:00.020Z,47.10
2019-02-25T08:14:40.673Z,47.00
2019-02-25T08:17:19.773Z,46.90
2019-02-25T08:20:11.634Z,46.40
2019-02-25T08:22:53.383Z,46.90
2019-02-25T08:25:36.753Z,46.70
2019-02-25T08:28:29.271Z,47.00
2019-02-25T08:31:09.862Z,46.80
2019-02-25T08:33:59.125Z,46.60
2019-02-25T08:37:58.374Z,46.70
2019-02-25T08:41:27.859Z,46.90
2019-02-25T08:44:17.389Z,46.80
2019-02-25T08:47:10.651Z,47.00
2019-02-25T08:49:49.387Z,46.90
2019-02-25T08:52:21.394Z,46.30
2019-02-25T08:55:03.461Z,46.70
2019-02-25T08:57:35.295Z,46.70
2019-02-25T09:00:09.530Z,46.80
2019-02-25T09:02:41.298Z,46.40
2019-02-25T09:05:15.029Z,46.40
2019-02-25T09:07:46.822Z,46.30
2019-02-25T09:10:18.417Z,46.20
2019-02-25T09:12:50.313Z,46.30
2019-02-25T09:15:22.297Z,46.00
2019-02-25T09:17:51.292Z,46.40
2019-02-25T09:20:23.053Z,46.10
2019-02-25T09:22:55.053Z,46.20
2019-02-25T09:25:26.778Z,46.20
2019-02-25T09:27:57.898Z,46.00
2019-02-25T09:30:29.752Z,46.10
2019-02-25T09:33:00.451Z,46.10
2019-02-25T09:35:32.409Z,46.30
2019-02-25T09:38:04.300Z,46.70
2019-02-25T09:40:35.895Z,45.80
2019-02-25T09:43:07.782Z,45.90
2019-02-25T09:45:38.516Z,45.70
2019-02-25T09:48:10.293Z,45.70
2019-02-25T09:50:41.848Z,45.80
2019-02-25T09:53:13.414Z,45.90
2019-02-25T09:55:45.778Z,46.10
2019-02-25T09:58:16.602Z,45.80
2019-02-25T10:00:51.807Z,45.70
2019-02-25T10:03:23.397Z,45.50
2019-02-25T10:05:55.307Z,45.30
2019-02-25T10:08:26.984Z,45.60
2019-02-25T10:10:58.793Z,45.20
2019-02-25T10:13:30.393Z,44.90
2019-02-25T10:16:02.306Z,45.20
2019-02-25T10:18:33.829Z,45.20
2019-02-25T10:21:05.609Z,45.10
2019-02-25T10:23:37.394Z,44.90
2019-02-25T10:26:09.060Z,44.80
2019-02-25T10:28:40.790Z,45.80
2019-02-25T10:31:13.080Z,45.50
2019-02-25T10:33:46.046Z,45.40
2019-02-25T10:36:17.785Z,45.10
2019-02-25T10:38:48.566Z,45.50
2019-02-25T10:41:21.678Z,45.70
2019-02-25T10:43:53.701Z,45.30
2019-02-25T10:46:24.478Z,45.60
2019-02-25T10:48:57.521Z,45.40
2019-02-25T10:51:29.780Z,45.10
2019-02-25T10:54:00.483Z,45.30
2019-02-25T10:56:52.004Z,45.40
2019-02-25T10:59:25.069Z,46.20
2019-02-25T11:01:56.751Z,45.60
2019-02-25T11:04:27.477Z,45.70
2019-02-25T11:07:00.803Z,45.50
2019-02-25T11:09:42.454Z,45.60
2019-02-25T11:12:15.053Z,45.70
2019-02-25T11:14:46.778Z,45.60
2019-02-25T11:17:18.327Z,45.50
2019-02-25T11:19:50.758Z,45.50
2019-02-25T11:22:21.502Z,45.40
2019-02-25T11:24:55.116Z,45.50
2019-02-25T11:27:28.494Z,45.40
2019-02-25T11:30:00.308Z,45.40
2019-02-25T11:32:31.832Z,45.60
2019-02-25T11:35:04.490Z,45.60
2019-02-25T11:37:37.311Z,45.20
2019-02-25T11:40:10.426Z,45.60
2019-02-25T11:42:42.115Z,46.30
2019-02-25T11:45:14.305Z,45.60
2019-02-25T11:47:45.835Z,45.50
2019-02-25T11:50:17.377Z,45.40
2019-02-25T11:52:49.263Z,45.30
2019-02-25T11:55:21.931Z,45.60
2019-02-25T11:57:53.857Z,45.50
2019-02-25T12:00:25.391Z,45.50
2019-02-25T12:02:57.075Z,45.40
2019-02-25T12:05:28.773Z,45.50
2019-02-25T12:08:00.115Z,45.20
2019-02-25T12:10:31.797Z,45.40
2019-02-25T12:13:03.856Z,45.40
2019-02-25T12:15:35.705Z,45.30
2019-02-25T12:18:07.377Z,45.50
2019-02-25T12:20:39.020Z,45.40
2019-02-25T12:23:10.734Z,45.30
2019-02-25T12:25:41.635Z,45.30
2019-02-25T12:28:13.648Z,45.10
2019-02-25T12:30:45.696Z,44.90
2019-02-25T12:33:16.494Z,44.80
2019-02-25T12:35:48.306Z,44.80
2019-02-25T12:38:20.309Z,45.10
2019-02-25T12:40:52.000Z,45.30
2019-02-25T12:43:23.733Z,45.90
2019-02-25T12:45:54.457Z,45.30
2019-02-25T12:48:26.061Z,45.20
2019-02-25T12:50:57.756Z,45.30
2019-02-25T12:53:28.494Z,45.30
2019-02-25T12:56:00.313Z,45.20
2019-02-25T12:58:31.813Z,45.00
2019-02-25T13:01:03.414Z,45.00
2019-02-25T13:03:35.330Z,45.30
2019-02-25T13:06:06.838Z,45.00
2019-02-25T13:08:38.563Z,44.80
2019-02-25T13:11:10.737Z,45.20
2019-02-25T13:13:41.432Z,44.70
2019-02-25T13:16:12.993Z,44.90
2019-02-25T13:18:44.777Z,45.00
2019-02-25T13:21:15.451Z,45.10
2019-02-25T13:23:47.089Z,45.10
2019-02-25T13:26:18.854Z,45.10
2019-02-25T13:28:50.771Z,45.00
2019-02-25T13:31:22.859Z,45.20
2019-02-25T13:33:54.750Z,45.20
2019-02-25T13:36:26.570Z,45.20
2019-02-25T13:38:58.397Z,45.10
2019-02-25T13:41:30.274Z,44.50
2019-02-25T13:44:02.312Z,45.00
2019-02-25T13:46:34.020Z,44.90
2019-02-25T13:49:05.787Z,45.00
2019-02-25T13:51:37.654Z,45.00
2019-02-25T13:54:08.502Z,45.10
2019-02-25T13:56:40.382Z,45.00
2019-02-25T13:59:11.662Z,44.50
2019-02-25T14:01:43.728Z,45.10
2019-02-25T14:04:15.803Z,44.70
2019-02-25T14:06:47.569Z,44.80
2019-02-25T14:09:19.300Z,45.00
2019-02-25T14:11:51.449Z,45.30
2019-02-25T14:14:23.670Z,45.10
2019-02-25T14:16:54.607Z,45.00
2019-02-25T14:19:26.384Z,44.40
2019-02-25T14:21:58.308Z,44.50
2019-02-25T14:24:30.408Z,44.90
2019-02-25T14:27:03.310Z,44.90
2019-02-25T14:29:35.066Z,44.80
2019-02-25T14:32:06.704Z,44.90
2019-02-25T14:34:38.385Z,44.90
2019-02-25T14:37:10.352Z,45.40
2019-02-25T14:39:43.303Z,44.40
2019-02-25T14:42:16.589Z,44.50
2019-02-25T14:44:49.954Z,44.40
2019-02-25T14:47:25.760Z,44.80
2019-02-25T14:49:54.653Z,44.90
2019-02-25T14:52:26.847Z,45.30
2019-02-25T14:55:01.526Z,44.40
2019-02-25T14:57:35.244Z,44.50
2019-02-25T15:00:10.707Z,44.70
2019-02-25T15:02:43.666Z,44.60
2019-02-25T15:05:17.321Z,44.40
2019-02-25T15:07:51.128Z,44.40
2019-02-25T15:10:26.661Z,44.10
2019-02-25T15:12:58.975Z,44.30
2019-02-25T15:15:30.303Z,44.20
2019-02-25T15:18:02.307Z,44.30
2019-02-25T15:20:34.301Z,44.40
2019-02-25T15:23:07.542Z,43.70
2019-02-25T15:25:40.888Z,42.40
2019-02-25T15:28:14.190Z,42.00
2019-02-25T15:30:46.609Z,40.40
2019-02-25T15:33:18.307Z,39.80
2019-02-25T15:35:50.317Z,38.20
2019-02-25T15:38:22.027Z,39.90
2019-02-25T15:40:55.915Z,40.40
2019-02-25T15:43:29.917Z,38.80
2019-02-25T15:46:02.825Z,38.90
2019-02-25T15:48:35.489Z,37.90
2019-02-25T15:51:08.306Z,37.40
2019-02-25T15:53:42.407Z,37.80
2019-02-25T15:56:13.752Z,36.50
2019-02-25T15:58:47.078Z,36.40
2019-02-25T16:01:18.833Z,35.30
2019-02-25T16:03:50.753Z,35.70
2019-02-25T16:06:24.772Z,34.90
2019-02-25T16:08:58.689Z,34.90
2019-02-25T16:11:30.274Z,34.50
2019-02-25T16:14:02.398Z,35.80
2019-02-25T16:16:34.761Z,33.90
2019-02-25T16:19:06.737Z,34.10
2019-02-25T16:21:41.034Z,35.20
2019-02-25T16:24:14.103Z,33.80
2019-02-25T16:26:45.792Z,34.70
2019-02-25T16:29:17.625Z,35.00
2019-02-25T16:31:51.031Z,35.00
2019-02-25T16:34:22.779Z,33.50
2019-02-25T16:36:55.984Z,34.00
2019-02-25T16:39:28.302Z,34.30
2019-02-25T16:42:00.388Z,34.50
2019-02-25T16:44:32.755Z,34.30
2019-02-25T16:47:04.775Z,34.90
2019-02-25T16:49:38.185Z,34.80
2019-02-25T16:52:10.076Z,36.10
2019-02-25T16:54:41.791Z,36.10
2019-02-25T16:57:14.264Z,35.90
2019-02-25T16:59:47.335Z,35.30
2019-02-25T17:02:19.776Z,36.10
2019-02-25T17:04:51.821Z,36.90
2019-02-25T17:07:23.404Z,36.60
2019-02-25T17:09:56.631Z,38.20
2019-02-25T17:12:29.505Z,37.90
2019-02-25T17:15:02.851Z,41.70
2019-02-25T17:17:34.758Z,41.80
2019-02-25T17:20:10.193Z,41.60
2019-02-25T17:22:41.329Z,42.20
2019-02-25T17:25:13.518Z,41.70
2019-02-25T17:27:46.038Z,41.80
2019-02-25T17:30:21.622Z,39.90
2019-02-25T17:32:53.299Z,38.30
2019-02-25T17:35:28.193Z,38.30
2019-02-25T17:38:00.836Z,36.90
2019-02-25T17:40:33.444Z,37.50
2019-02-25T17:43:05.758Z,37.50
2019-02-25T17:45:39.006Z,36.70
2019-02-25T17:48:13.441Z,36.50
2019-02-25T17:50:45.052Z,36.20
2019-02-25T17:53:17.044Z,37.20
2019-02-25T17:55:50.736Z,36.10
2019-02-25T17:58:24.054Z,36.00
2019-02-25T18:00:56.613Z,36.30
2019-02-25T18:03:29.892Z,36.10
2019-02-25T18:06:03.453Z,36.20
2019-02-25T18:08:36.691Z,35.90
2019-02-25T18:11:08.822Z,36.90
2019-02-25T18:13:40.752Z,37.30
2019-02-25T18:16:14.300Z,38.60
2019-02-25T18:18:52.565Z,38.40
2019-02-25T18:21:28.303Z,39.30
2019-02-25T18:23:58.036Z,39.30
2019-02-25T18:26:31.062Z,41.30
2019-02-25T18:29:05.559Z,41.40
2019-02-25T18:31:36.789Z,41.90
2019-02-25T18:34:09.598Z,41.90
2019-02-25T18:36:42.292Z,41.70
2019-02-25T18:39:15.777Z,42.00
2019-02-25T18:41:48.450Z,42.10
2019-02-25T18:44:21.339Z,41.70
2019-02-25T18:46:53.369Z,41.90
2019-02-25T18:49:26.591Z,42.80
2019-02-25T18:51:59.293Z,42.80
2019-02-25T18:54:31.046Z,42.80
2019-02-25T18:57:05.395Z,43.00
2019-02-25T18:59:37.256Z,42.60
2019-02-25T19:02:10.183Z,43.10
2019-02-25T19:04:43.515Z,43.30
2019-02-25T19:07:15.792Z,42.70
2019-02-25T19:09:49.330Z,43.20
2019-02-25T19:12:21.480Z,43.30
2019-02-25T19:14:55.293Z,43.30
2019-02-25T19:17:27.259Z,43.40
2019-02-25T19:19:59.770Z,43.30
2019-02-25T19:22:35.603Z,43.40
2019-02-25T19:25:10.051Z,43.80
2019-02-25T19:27:42.306Z,40.60
2019-02-25T19:30:17.449Z,39.70
2019-02-25T19:32:47.805Z,37.50
2019-02-25T19:35:21.904Z,36.80
2019-02-25T19:37:53.492Z,36.20
2019-02-25T19:40:25.909Z,35.00
2019-02-25T19:42:59.244Z,34.90
2019-02-25T19:45:32.755Z,34.40
2019-02-25T19:48:07.197Z,34.10
2019-02-25T19:50:50.706Z,34.30
2019-02-25T19:53:15.230Z,34.50
2019-02-25T19:55:49.198Z,34.60
2019-02-25T19:58:21.812Z,34.70
2019-02-25T20:01:00.328Z,35.00
2019-02-25T20:03:28.953Z,34.70
2019-02-25T20:06:01.341Z,34.80
2019-02-25T20:08:33.549Z,34.90
2019-02-25T20:11:09.249Z,34.80
2019-02-25T20:14:21.713Z,35.00
2019-02-25T20:16:53.260Z,34.60
2019-02-25T20:19:25.831Z,35.20
2019-02-25T20:21:57.851Z,35.50
2019-02-25T20:24:31.916Z,36.00
2019-02-25T20:27:05.189Z,37.40
2019-02-25T20:29:37.822Z,39.30
2019-02-25T20:32:12.140Z,38.90
2019-02-25T20:34:45.944Z,39.70
2019-02-25T20:37:18.969Z,42.20
2019-02-25T20:39:50.802Z,42.70
2019-02-25T20:42:24.038Z,43.20
2019-02-25T20:44:57.547Z,43.40
2019-02-25T20:47:29.799Z,43.60
2019-02-25T20:50:03.732Z,43.70
2019-02-25T20:52:36.598Z,43.60
2019-02-25T20:55:11.051Z,43.20
2019-02-25T20:57:44.421Z,43.40
2019-02-25T21:00:20.073Z,44.10
2019-02-25T21:02:51.828Z,43.80
2019-02-25T21:05:26.850Z,44.20
2019-02-25T21:07:59.755Z,44.10
2019-02-25T21:10:35.043Z,43.90
2019-02-25T21:13:05.318Z,44.60
2019-02-25T21:15:38.463Z,44.50
2019-02-25T21:18:10.811Z,44.40
2019-02-25T21:20:42.950Z,44.50
2019-02-25T21:23:15.890Z,44.60
2019-02-25T21:25:47.741Z,44.70
2019-02-25T21:28:18.494Z,44.80
2019-02-25T21:30:51.186Z,44.80
2019-02-25T21:33:25.461Z,44.90
2019-02-25T21:35:57.318Z,44.80
2019-02-25T21:38:30.304Z,44.30
2019-02-25T21:41:02.364Z,44.90
2019-02-25T21:43:34.450Z,45.00
2019-02-25T21:46:06.029Z,45.10
2019-02-25T21:48:37.898Z,45.00
2019-02-25T21:51:11.846Z,45.50
2019-02-25T21:53:43.727Z,45.40
2019-02-25T21:56:16.779Z,45.40
2019-02-25T21:58:50.944Z,45.40
2019-02-25T22:01:22.801Z,46.50
2019-02-25T22:03:54.884Z,45.60
2019-02-25T22:06:29.032Z,45.70
2019-02-25T22:09:02.447Z,45.60
2019-02-25T22:11:34.660Z,45.80
2019-02-25T22:14:06.768Z,45.90
2019-02-25T22:16:44.063Z,45.40
2019-02-25T22:19:14.105Z,45.30
2019-02-25T22:21:45.783Z,46.00
2019-02-25T22:24:17.626Z,45.70
2019-02-25T22:26:51.554Z,45.80
2019-02-25T22:29:23.394Z,45.50
2019-02-25T22:31:56.334Z,46.10
2019-02-25T22:34:28.084Z,46.00
2019-02-25T22:37:02.311Z,45.90
2019-02-25T22:39:33.635Z,46.10
2019-02-25T22:42:07.387Z,46.30
2019-02-25T22:44:38.819Z,45.70
2019-02-25T22:47:11.615Z,46.80
2019-02-25T22:49:44.862Z,46.00
2019-02-25T22:52:16.429Z,46.10
2019-02-25T22:54:50.012Z,46.20
2019-02-25T22:57:23.193Z,46.40
2019-02-25T22:59:56.072Z,46.30
2019-02-25T23:02:28.154Z,46.40
2019-02-25T23:05:00.320Z,46.50
2019-02-25T23:07:32.070Z,46.60
2019-02-25T23:10:03.832Z,46.50
2019-02-25T23:12:35.801Z,46.40
2019-02-25T23:15:07.894Z,46.30
2019-02-25T23:17:40.009Z,46.40
2019-02-25T23:20:12.821Z,46.50
2019-02-25T23:22:44.782Z,46.60
2019-02-25T23:25:15.511Z,46.50
2019-02-25T23:27:47.322Z,46.40
2019-02-25T23:30:21.255Z,46.20
2019-02-25T23:32:54.544Z,46.60
2019-02-25T23:35:25.839Z,46.60
2019-02-25T23:37:59.082Z,46.60
2019-02-25T23:40:35.333Z,46.50
2019-02-25T23:43:07.455Z,46.40
2019-02-25T23:45:41.739Z,46.70
2019-02-25T23:48:13.319Z,46.70
2019-02-25T23:50:44.915Z,46.60
2019-02-25T23:53:16.462Z,46.70
2019-02-25T23:55:50.054Z,46.70
2019-02-25T23:58:24.007Z,46.80
